createdAt,value
2016-04-02T00:00:57.661Z,10.92
2016-04-02T00:01:57.679Z,11
2016-04-02T00:02:57.729Z,10.93
2016-04-02T00:03:57.857Z,10.92
2016-04-02T00:04:57.734Z,11
2016-04-02T00:05:57.737Z,10.99
2016-04-02T00:06:57.755Z,11.08
2016-04-02T00:07:57.757Z,10.93
2016-04-02T00:08:57.776Z,11.04
2016-04-02T00:09:57.794Z,11.02
2016-04-02T00:10:57.829Z,10.99
2016-04-02T00:11:57.815Z,10.93
2016-04-02T00:12:57.834Z,10.97
2016-04-02T00:13:57.868Z,10.87
2016-04-02T00:14:57.886Z,10.9
2016-04-02T00:15:57.889Z,10.72
2016-04-02T00:16:57.907Z,10.59
2016-04-02T00:17:57.941Z,10.67
2016-04-02T00:18:57.975Z,10.54
2016-04-02T00:19:57.946Z,10.51
2016-04-02T00:20:57.965Z,10.64
2016-04-02T00:21:57.967Z,10.64
2016-04-02T00:22:58.001Z,10.61
2016-04-02T00:23:58.020Z,10.61
2016-04-02T00:24:58.022Z,10.56
2016-04-02T00:25:58.041Z,10.63
2016-04-02T00:26:58.044Z,10.59
2016-04-02T00:27:58.078Z,10.49
2016-04-02T00:28:58.080Z,10.53
2016-04-02T00:29:58.113Z,10.4
2016-04-02T00:30:58.116Z,10.42
2016-04-02T00:31:58.135Z,10.46
2016-04-02T00:32:58.152Z,10.56
2016-04-02T00:33:58.171Z,10.51
2016-04-02T00:34:58.158Z,10.51
2016-04-02T00:35:58.182Z,10.56
2016-04-02T00:36:58.215Z,10.4
2016-04-02T00:37:58.218Z,10.51
2016-04-02T00:38:58.221Z,10.44
2016-04-02T00:39:58.239Z,10.57
2016-04-02T00:40:58.243Z,10.51
2016-04-02T00:41:58.276Z,10.56
2016-04-02T00:42:58.278Z,10.54
2016-04-02T00:43:58.329Z,10.54
2016-04-02T00:44:58.315Z,10.49
2016-04-02T00:45:58.350Z,10.49
2016-04-02T00:46:58.352Z,10.42
2016-04-02T00:47:58.370Z,10.4
2016-04-02T00:48:58.436Z,10.44
2016-04-02T00:49:58.375Z,10.46
2016-04-02T00:50:58.425Z,10.44
2016-04-02T00:51:58.428Z,10.51
2016-04-02T00:52:58.446Z,10.53
2016-04-02T00:53:58.449Z,10.53
2016-04-02T00:54:58.467Z,10.53
2016-04-02T00:55:58.501Z,10.51
2016-04-02T00:56:58.488Z,10.53
2016-04-02T00:57:58.506Z,10.44
2016-04-02T00:58:58.525Z,10.4
2016-04-02T00:59:58.543Z,10.34
2016-04-02T01:00:58.546Z,10.26
2016-04-02T01:01:58.580Z,10.22
2016-04-02T01:02:58.582Z,10.25
2016-04-02T01:03:58.632Z,10.28
2016-04-02T01:04:58.619Z,10.33
2016-04-02T01:05:58.622Z,10.25
2016-04-02T01:06:58.640Z,10.3
2016-04-02T01:07:58.658Z,10.3
2016-04-02T01:08:58.708Z,10.25
2016-04-02T01:09:58.727Z,10.3
2016-04-02T01:10:58.713Z,10.31
2016-04-02T01:11:58.763Z,10.34
2016-04-02T01:12:58.718Z,10.35
2016-04-02T01:13:58.753Z,10.37
2016-04-02T01:14:58.755Z,10.35
2016-04-02T01:15:58.774Z,10.25
2016-04-02T01:16:58.776Z,10.22
2016-04-02T01:17:58.825Z,10.15
2016-04-02T01:18:58.953Z,10.26
2016-04-02T01:19:58.847Z,10.17
2016-04-02T01:20:58.850Z,10.3
2016-04-02T01:21:58.900Z,10.2
2016-04-02T01:22:58.871Z,10.26
2016-04-02T01:23:58.905Z,10.26
2016-04-02T01:24:58.907Z,10.28
2016-04-02T01:25:58.925Z,10.22
2016-04-02T01:26:59.006Z,10.22
2016-04-02T01:27:58.947Z,10.3
2016-04-02T01:28:58.981Z,10.3
2016-04-02T01:29:58.968Z,10.33
2016-04-02T01:30:59.002Z,10.33
2016-04-02T01:31:59.020Z,10.33
2016-04-02T01:32:59.022Z,10.26
2016-04-02T01:33:59.072Z,10.31
2016-04-02T01:34:59.044Z,10.31
2016-04-02T01:35:59.062Z,10.4
2016-04-02T01:36:59.096Z,10.3
2016-04-02T01:37:59.130Z,10.25
2016-04-02T01:38:59.148Z,10.33
2016-04-02T01:39:59.120Z,10.4
2016-04-02T01:40:59.138Z,10.37
2016-04-02T01:41:59.156Z,10.35
2016-04-02T01:42:59.206Z,10.35
2016-04-02T01:43:59.193Z,10.35
2016-04-02T01:44:59.195Z,10.35
2016-04-02T01:45:59.245Z,10.33
2016-04-02T01:46:59.248Z,10.25
2016-04-02T01:47:59.266Z,10.33
2016-04-02T01:48:59.347Z,10.28
2016-04-02T01:49:59.286Z,10.3
2016-04-02T01:50:59.305Z,10.34
2016-04-02T01:51:59.308Z,10.3
2016-04-02T01:52:59.311Z,10.3
2016-04-02T01:53:59.344Z,10.33
2016-04-02T01:54:59.347Z,10.33
2016-04-02T01:55:59.343Z,10.34
2016-04-02T01:56:59.365Z,10.34
2016-04-02T01:57:59.356Z,10.3
2016-04-02T01:58:59.363Z,10.25
2016-04-02T01:59:59.370Z,10.28
2016-04-02T02:00:59.366Z,10.37
2016-04-02T02:01:59.379Z,10.31
2016-04-02T02:02:59.394Z,10.38
2016-04-02T02:03:59.454Z,10.35
2016-04-02T02:04:59.438Z,10.41
2016-04-02T02:05:59.422Z,10.3
2016-04-02T02:06:59.453Z,10.26
2016-04-02T02:07:59.704Z,10.35
2016-04-02T02:08:59.465Z,10.3
2016-04-02T02:09:59.482Z,10.3
2016-04-02T02:10:59.483Z,10.33
2016-04-02T02:11:59.516Z,10.37
2016-04-02T02:12:59.503Z,10.41
2016-04-02T02:13:59.537Z,10.31
2016-04-02T02:14:59.546Z,10.26
2016-04-02T02:15:59.565Z,10.38
2016-04-02T02:16:59.584Z,10.35
2016-04-02T02:17:59.586Z,10.34
2016-04-02T02:18:59.338Z,10.37
2016-04-02T02:19:59.621Z,10.33
2016-04-02T02:20:59.623Z,10.25
2016-04-02T02:21:59.688Z,10.23
2016-04-02T02:22:59.690Z,10.2
2016-04-02T02:23:59.693Z,10.19
2016-04-02T02:24:59.696Z,10.22
2016-04-02T02:25:59.714Z,10.25
2016-04-02T02:26:59.717Z,10.26
2016-04-02T02:27:59.737Z,10.33
2016-04-02T02:28:59.754Z,10.2
2016-04-02T02:29:59.757Z,10.01
2016-04-02T02:30:59.775Z,10.02
2016-04-02T02:31:59.794Z,10.04
2016-04-02T02:32:59.812Z,10.04
2016-04-02T02:33:59.862Z,10.07
2016-04-02T02:34:59.849Z,10.1
2016-04-02T02:35:59.867Z,10.04
2016-04-02T02:36:59.901Z,10.02
2016-04-02T02:37:59.873Z,10.02
2016-04-02T02:38:59.750Z,10.05
2016-04-02T02:39:59.894Z,10.05
2016-04-02T02:40:59.943Z,10.07
2016-04-02T02:41:59.947Z,10.16
2016-04-02T02:42:59.964Z,10.15
2016-04-02T02:43:59.967Z,10.23
2016-04-02T02:44:59.986Z,10.25
2016-04-02T02:46:00.003Z,10.3
2016-04-02T02:47:00.006Z,10.19
2016-04-02T02:48:00.041Z,10.17
2016-04-02T02:49:00.043Z,10.07
2016-04-02T02:50:00.061Z,10.07
2016-04-02T02:51:00.095Z,10.1
2016-04-02T02:52:00.098Z,10.05
2016-04-02T02:53:00.085Z,10.05
2016-04-02T02:54:00.118Z,10.15
2016-04-02T02:55:00.121Z,10.16
2016-04-02T02:56:00.140Z,10.12
2016-04-02T02:57:00.143Z,10.17
2016-04-02T02:58:00.177Z,10.17
2016-04-02T02:59:00.179Z,10.16
2016-04-02T03:00:00.182Z,10.02
2016-04-02T03:01:00.043Z,10.02
2016-04-02T03:02:00.234Z,9.98
2016-04-02T03:03:00.253Z,10.01
2016-04-02T03:04:00.161Z,10.1
2016-04-02T03:05:00.290Z,10.01
2016-04-02T03:06:00.307Z,10.05
2016-04-02T03:07:00.310Z,10.02
2016-04-02T03:08:00.313Z,10.07
2016-04-02T03:09:00.348Z,10.15
2016-04-02T03:10:00.334Z,10.09
2016-04-02T03:11:00.368Z,10.1
2016-04-02T03:12:00.370Z,10.15
2016-04-02T03:13:00.373Z,10.09
2016-04-02T03:14:00.408Z,10.04
2016-04-02T03:15:00.410Z,10.07
2016-04-02T03:16:00.444Z,10.07
2016-04-02T03:17:00.446Z,10.04
2016-04-02T03:18:00.480Z,10.1
2016-04-02T03:19:00.889Z,9.99
2016-04-02T03:20:00.517Z,10.01
2016-04-02T03:21:00.520Z,9.94
2016-04-02T03:22:00.507Z,10.01
2016-04-02T03:23:00.525Z,10.04
2016-04-02T03:24:00.559Z,10.05
2016-04-02T03:25:00.562Z,9.92
2016-04-02T03:26:00.580Z,10.04
2016-04-02T03:27:00.598Z,9.97
2016-04-02T03:28:00.616Z,9.94
2016-04-02T03:29:00.760Z,9.89
2016-04-02T03:30:00.654Z,9.89
2016-04-02T03:31:00.641Z,9.86
2016-04-02T03:32:00.690Z,9.8
2016-04-02T03:33:00.693Z,9.87
2016-04-02T03:34:01.039Z,9.87
2016-04-02T03:35:00.760Z,9.84
2016-04-02T03:36:00.732Z,9.86
2016-04-02T03:37:00.766Z,9.87
2016-04-02T03:39:00.787Z,9.94
2016-04-02T03:40:00.789Z,9.99
2016-04-02T03:41:00.808Z,10.04
2016-04-02T03:42:00.811Z,10.01
2016-04-02T03:43:00.829Z,9.99
2016-04-02T03:44:00.832Z,10.01
2016-04-02T03:45:00.866Z,10.04
2016-04-02T03:46:00.869Z,10.05
2016-04-02T03:47:00.872Z,10.04
2016-04-02T03:48:00.905Z,9.98
2016-04-02T03:49:01.002Z,10.07
2016-04-02T03:50:00.941Z,10.1
2016-04-02T03:51:01.007Z,9.94
2016-04-02T03:52:00.946Z,9.92
2016-04-02T03:53:00.965Z,9.87
2016-04-02T03:54:01.046Z,9.92
2016-04-02T03:55:00.985Z,9.94
2016-04-02T03:56:01.020Z,10.02
2016-04-02T03:57:01.038Z,9.99
2016-04-02T03:58:01.041Z,9.99
2016-04-02T03:59:01.060Z,10.02
2016-04-02T04:00:01.062Z,9.98
2016-04-02T04:01:01.065Z,9.91
2016-04-02T04:02:01.145Z,9.95
2016-04-02T04:03:01.101Z,9.98
2016-04-02T04:04:01.198Z,9.98
2016-04-02T04:05:01.123Z,9.91
2016-04-02T04:06:01.141Z,9.94
2016-04-02T04:07:01.176Z,9.89
2016-04-02T04:08:01.209Z,9.92
2016-04-02T04:09:01.196Z,9.92
2016-04-02T04:10:01.215Z,9.94
2016-04-02T04:11:01.248Z,9.99
2016-04-02T04:12:01.235Z,9.98
2016-04-02T04:13:01.253Z,9.95
2016-04-02T04:14:01.256Z,10.05
2016-04-02T04:15:01.290Z,10.01
2016-04-02T04:16:01.292Z,9.87
2016-04-02T04:17:01.327Z,9.83
2016-04-02T04:18:01.313Z,9.82
2016-04-02T04:19:01.269Z,9.83
2016-04-02T04:20:01.350Z,9.83
2016-04-02T04:21:01.369Z,9.79
2016-04-02T04:22:01.372Z,9.84
2016-04-02T04:23:01.389Z,9.83
2016-04-02T04:24:01.392Z,9.79
2016-04-02T04:25:01.427Z,9.84
2016-04-02T04:26:01.429Z,9.87
2016-04-02T04:27:01.447Z,9.91
2016-04-02T04:28:01.465Z,9.94
2016-04-02T04:29:01.499Z,9.92
2016-04-02T04:30:01.517Z,9.84
2016-04-02T04:31:01.520Z,9.84
2016-04-02T04:32:01.523Z,9.89
2016-04-02T04:33:01.557Z,9.87
2016-04-02T04:34:01.559Z,9.84
2016-04-02T04:35:01.579Z,9.82
2016-04-02T04:36:01.565Z,9.84
2016-04-02T04:37:01.599Z,9.82
2016-04-02T04:38:01.587Z,9.83
2016-04-02T04:39:01.636Z,9.87
2016-04-02T04:40:01.623Z,9.82
2016-04-02T04:41:01.641Z,9.86
2016-04-02T04:42:01.659Z,9.77
2016-04-02T04:43:01.678Z,9.76
2016-04-02T04:44:01.681Z,9.66
2016-04-02T04:45:01.543Z,9.62
2016-04-02T04:46:01.733Z,9.65
2016-04-02T04:47:01.720Z,9.68
2016-04-02T04:48:01.754Z,9.62
2016-04-02T04:49:02.006Z,9.65
2016-04-02T04:50:01.759Z,9.59
2016-04-02T04:51:01.793Z,9.65
2016-04-02T04:52:01.811Z,9.65
2016-04-02T04:53:01.814Z,9.69
2016-04-02T04:54:01.847Z,9.79
2016-04-02T04:55:01.835Z,9.84
2016-04-02T04:56:01.853Z,9.84
2016-04-02T04:57:01.871Z,9.8
2016-04-02T04:58:01.875Z,9.84
2016-04-02T04:59:01.893Z,9.79
2016-04-02T05:00:01.911Z,9.76
2016-04-02T05:01:01.930Z,9.8
2016-04-02T05:02:01.979Z,9.82
2016-04-02T05:03:01.951Z,9.83
2016-04-02T05:04:01.999Z,9.86
2016-04-02T05:05:01.971Z,9.91
2016-04-02T05:06:01.990Z,9.87
2016-04-02T05:07:02.023Z,9.64
2016-04-02T05:08:02.026Z,9.72
2016-04-02T05:09:02.044Z,9.62
2016-04-02T05:10:02.062Z,9.65
2016-04-02T05:11:02.065Z,9.73
2016-04-02T05:12:02.083Z,9.68
2016-04-02T05:13:02.103Z,9.72
2016-04-02T05:14:02.105Z,9.79
2016-04-02T05:15:02.123Z,9.68
2016-04-02T05:16:02.142Z,9.66
2016-04-02T05:17:02.144Z,9.69
2016-04-02T05:18:02.162Z,9.65
2016-04-02T05:19:02.133Z,9.54
2016-04-02T05:20:02.183Z,9.51
2016-04-02T05:21:02.233Z,9.55
2016-04-02T05:22:02.220Z,9.54
2016-04-02T05:23:02.255Z,9.55
2016-04-02T05:24:02.273Z,9.62
2016-04-02T05:25:02.260Z,9.59
2016-04-02T05:26:02.263Z,9.68
2016-04-02T05:27:02.296Z,9.68
2016-04-02T05:28:02.299Z,9.56
2016-04-02T05:29:02.317Z,9.59
2016-04-02T05:30:02.351Z,9.73
2016-04-02T05:31:02.338Z,9.73
2016-04-02T05:32:02.356Z,9.74
2016-04-02T05:33:02.374Z,9.69
2016-04-02T05:34:02.440Z,9.58
2016-04-02T05:35:02.411Z,9.5
2016-04-02T05:36:02.429Z,9.56
2016-04-02T05:37:02.432Z,9.55
2016-04-02T05:38:02.466Z,9.62
2016-04-02T05:39:02.469Z,9.56
2016-04-02T05:40:02.471Z,9.55
2016-04-02T05:41:02.506Z,9.39
2016-04-02T05:42:02.492Z,9.41
2016-04-02T05:43:02.526Z,9.56
2016-04-02T05:44:02.529Z,9.68
2016-04-02T05:45:02.547Z,9.74
2016-04-02T05:46:02.566Z,9.61
2016-04-02T05:47:02.583Z,9.54
2016-04-02T05:48:02.602Z,9.65
2016-04-02T05:49:02.652Z,9.58
2016-04-02T05:50:02.623Z,9.48
2016-04-02T05:51:02.626Z,9.47
2016-04-02T05:52:02.676Z,9.54
2016-04-02T05:53:02.678Z,9.44
2016-04-02T05:54:02.681Z,9.37
2016-04-02T05:55:02.528Z,9.48
2016-04-02T05:56:02.702Z,9.56
2016-04-02T05:57:02.721Z,9.51
2016-04-02T05:58:02.738Z,9.64
2016-04-02T05:59:02.741Z,9.54
2016-04-02T06:00:02.760Z,9.72
2016-04-02T06:01:02.778Z,9.65
2016-04-02T06:02:02.797Z,9.68
2016-04-02T06:03:02.799Z,9.72
2016-04-02T06:04:02.833Z,9.56
2016-04-02T06:05:02.836Z,9.65
2016-04-02T06:06:02.838Z,9.65
2016-04-02T06:07:02.888Z,9.8
2016-04-02T06:08:02.859Z,9.8
2016-04-02T06:09:02.878Z,9.84
2016-04-02T06:10:02.912Z,9.86
2016-04-02T06:11:02.929Z,9.84
2016-04-02T06:12:02.948Z,9.8
2016-04-02T06:13:02.966Z,9.83
2016-04-02T06:14:02.984Z,9.83
2016-04-02T06:15:03.003Z,9.84
2016-04-02T06:16:03.022Z,9.84
2016-04-02T06:17:03.040Z,9.82
2016-04-02T06:18:03.028Z,9.82
2016-04-02T06:19:03.123Z,9.87
2016-04-02T06:20:03.064Z,9.87
2016-04-02T06:21:03.113Z,9.82
2016-04-02T06:22:03.131Z,10.04
2016-04-02T06:23:03.087Z,9.99
2016-04-02T06:24:03.121Z,9.99
2016-04-02T06:25:03.108Z,10.09
2016-04-02T06:26:03.173Z,10.02
2016-04-02T06:27:03.176Z,10.04
2016-04-02T06:28:03.179Z,10.02
2016-04-02T06:29:03.181Z,10.04
2016-04-02T06:30:03.043Z,10.09
2016-04-02T06:31:03.046Z,10.15
2016-04-02T06:32:03.189Z,10.12
2016-04-02T06:33:03.239Z,10.02
2016-04-02T06:34:03.288Z,10.07
2016-04-02T06:35:03.260Z,10.02
2016-04-02T06:36:03.309Z,10.07
2016-04-02T06:37:03.281Z,10.16
2016-04-02T06:38:03.299Z,10.2
2016-04-02T06:39:03.318Z,10.22
2016-04-02T06:40:03.321Z,10.23
2016-04-02T06:41:03.340Z,10.22
2016-04-02T06:42:03.373Z,10.23
2016-04-02T06:43:03.391Z,10.28
2016-04-02T06:44:03.394Z,10.25
2016-04-02T06:45:03.428Z,10.33
2016-04-02T06:46:03.462Z,10.46
2016-04-02T06:47:03.433Z,10.28
2016-04-02T06:48:03.467Z,10.17
2016-04-02T06:49:03.548Z,10.16
2016-04-02T06:50:03.472Z,10.22
2016-04-02T06:51:03.491Z,10.15
2016-04-02T06:52:03.493Z,10.26
2016-04-02T06:53:03.542Z,10.05
2016-04-02T06:54:03.530Z,10.1
2016-04-02T06:55:03.533Z,10.26
2016-04-02T06:56:03.567Z,10.17
2016-04-02T06:57:03.663Z,10.15
2016-04-02T06:58:03.619Z,10.17
2016-04-02T06:59:03.605Z,10.19
2016-04-02T07:00:03.624Z,10.19
2016-04-02T07:01:03.643Z,10.17
2016-04-02T07:02:03.691Z,10.15
2016-04-02T07:03:03.663Z,10.23
2016-04-02T07:04:03.743Z,10.25
2016-04-02T07:05:03.731Z,10.3
2016-04-02T07:06:03.718Z,10.37
2016-04-02T07:07:03.737Z,10.34
2016-04-02T07:08:03.786Z,10.33
2016-04-02T07:09:03.743Z,10.35
2016-04-02T07:10:03.760Z,10.34
2016-04-02T07:11:03.795Z,10.42
2016-04-02T07:12:03.798Z,10.46
2016-04-02T07:13:03.800Z,10.44
2016-04-02T07:14:03.818Z,10.53
2016-04-02T07:15:03.837Z,10.34
2016-04-02T07:16:03.854Z,10.44
2016-04-02T07:17:03.889Z,10.53
2016-04-02T07:18:03.876Z,10.48
2016-04-02T07:19:04.050Z,10.57
2016-04-02T07:20:03.912Z,10.63
2016-04-02T07:21:03.931Z,10.53
2016-04-02T07:22:03.933Z,10.54
2016-04-02T07:23:03.952Z,10.54
2016-04-02T07:24:03.986Z,10.46
2016-04-02T07:25:03.988Z,10.53
2016-04-02T07:26:04.006Z,10.59
2016-04-02T07:27:04.040Z,10.6
2016-04-02T07:28:04.027Z,10.69
2016-04-02T07:29:04.061Z,10.59
2016-04-02T07:30:04.049Z,10.74
2016-04-02T07:31:04.067Z,10.67
2016-04-02T07:32:04.101Z,10.54
2016-04-02T07:33:04.088Z,10.84
2016-04-02T07:34:04.371Z,10.74
2016-04-02T07:35:04.124Z,10.81
2016-04-02T07:36:04.174Z,10.68
2016-04-02T07:37:04.161Z,10.69
2016-04-02T07:38:04.179Z,10.75
2016-04-02T07:39:04.198Z,10.75
2016-04-02T07:40:04.200Z,10.71
2016-04-02T07:41:04.218Z,10.78
2016-04-02T07:42:04.237Z,10.87
2016-04-02T07:43:04.240Z,10.93
2016-04-02T07:44:04.274Z,10.94
2016-04-02T07:45:04.198Z,11.05
2016-04-02T07:46:04.295Z,11.07
2016-04-02T07:47:04.297Z,11.11
2016-04-02T07:48:04.362Z,11.05
2016-04-02T07:49:04.318Z,11.12
2016-04-02T07:50:04.352Z,11.23
2016-04-02T07:51:04.449Z,11.22
2016-04-02T07:52:04.373Z,11.3
2016-04-02T07:53:04.392Z,11.44
2016-04-02T07:54:04.270Z,11.45
2016-04-02T07:55:04.428Z,11.48
2016-04-02T07:56:04.462Z,11.57
2016-04-02T07:57:04.464Z,11.54
2016-04-02T07:58:04.467Z,11.57
2016-04-02T07:59:04.516Z,11.62
2016-04-02T08:00:04.504Z,11.66
2016-04-02T08:01:04.538Z,11.8
2016-04-02T08:02:04.432Z,11.99
2016-04-02T08:03:04.560Z,11.95
2016-04-02T08:04:04.594Z,12.13
2016-04-02T08:05:04.596Z,12.29
2016-04-02T08:06:04.599Z,12.25
2016-04-02T08:07:04.616Z,12.29
2016-04-02T08:08:04.635Z,12.24
2016-04-02T08:09:04.653Z,12.29
2016-04-02T08:10:04.656Z,12.39
2016-04-02T08:11:04.706Z,12.47
2016-04-02T08:12:04.692Z,12.58
2016-04-02T08:13:04.711Z,12.62
2016-04-02T08:14:04.729Z,12.76
2016-04-02T08:15:04.748Z,12.79
2016-04-02T08:16:04.766Z,12.87
2016-04-02T08:17:04.800Z,12.93
2016-04-02T08:18:04.803Z,12.95
2016-04-02T08:19:04.992Z,12.98
2016-04-02T08:20:04.839Z,13.03
2016-04-02T08:21:04.858Z,13.05
2016-04-02T08:22:04.861Z,13.12
2016-04-02T08:23:04.879Z,13.09
2016-04-02T08:24:04.897Z,13.09
2016-04-02T08:25:04.915Z,13.16
2016-04-02T08:26:04.949Z,13.16
2016-04-02T08:27:04.967Z,13.16
2016-04-02T08:28:04.954Z,13.27
2016-04-02T08:29:04.988Z,13.33
2016-04-02T08:30:05.007Z,13.37
2016-04-02T08:31:05.010Z,13.27
2016-04-02T08:32:04.888Z,13.23
2016-04-02T08:33:05.046Z,13.16
2016-04-02T08:34:05.080Z,13.28
2016-04-02T08:35:05.098Z,13.12
2016-04-02T08:36:05.116Z,13.19
2016-04-02T08:37:05.134Z,13.27
2016-04-02T08:38:05.121Z,13.35
2016-04-02T08:39:05.156Z,13.49
2016-04-02T08:40:05.205Z,13.68
2016-04-02T08:41:05.176Z,13.67
2016-04-02T08:42:05.211Z,13.72
2016-04-02T08:43:05.213Z,13.86
2016-04-02T08:44:05.232Z,13.78
2016-04-02T08:45:05.265Z,13.81
2016-04-02T08:46:05.268Z,13.89
2016-04-02T08:47:05.287Z,13.85
2016-04-02T08:48:05.337Z,13.86
2016-04-02T08:49:05.183Z,13.97
2016-04-02T08:50:05.342Z,13.93
2016-04-02T08:51:05.391Z,14.05
2016-04-02T08:52:05.378Z,14.15
2016-04-02T08:53:05.397Z,14.29
2016-04-02T08:54:05.414Z,14.36
2016-04-02T08:55:05.433Z,14.32
2016-04-02T08:56:05.467Z,14.3
2016-04-02T08:57:05.470Z,14.41
2016-04-02T08:58:05.504Z,14.53
2016-04-02T08:59:05.506Z,14.65
2016-04-02T09:00:05.541Z,14.77
2016-04-02T09:01:05.543Z,14.82
2016-04-02T09:02:05.561Z,14.88
2016-04-02T09:03:05.595Z,14.94
2016-04-02T09:04:05.520Z,15.02
2016-04-02T09:05:05.616Z,15.07
2016-04-02T09:06:05.635Z,15.22
2016-04-02T09:07:05.652Z,15.54
2016-04-02T09:08:05.671Z,15.82
2016-04-02T09:09:05.704Z,16.01
2016-04-02T09:10:05.723Z,16.13
2016-04-02T09:11:05.726Z,16.31
2016-04-02T09:12:05.776Z,16.57
2016-04-02T09:13:05.779Z,16.78
2016-04-02T09:14:05.812Z,16.76
2016-04-02T09:15:05.831Z,17.05
2016-04-02T09:16:05.849Z,17.15
2016-04-02T09:17:05.868Z,17.26
2016-04-02T09:18:05.871Z,17.3
2016-04-02T09:19:05.920Z,17.29
2016-04-02T09:20:05.923Z,17.57
2016-04-02T09:21:05.940Z,17.74
2016-04-02T09:22:05.959Z,17.85
2016-04-02T09:23:05.977Z,18.11
2016-04-02T09:24:06.011Z,18.28
2016-04-02T09:25:06.061Z,18.47
2016-04-02T09:26:06.048Z,18.44
2016-04-02T09:27:06.098Z,18.45
2016-04-02T09:28:06.100Z,18.45
2016-04-02T09:29:06.119Z,18.74
2016-04-02T09:30:06.136Z,18.77
2016-04-02T09:31:06.171Z,18.66
2016-04-02T09:32:06.188Z,18.78
2016-04-02T09:33:06.222Z,19.09
2016-04-02T09:34:06.272Z,19.16
2016-04-02T09:35:06.260Z,18.95
2016-04-02T09:36:06.278Z,18.78
2016-04-02T09:37:06.312Z,18.75
2016-04-02T09:38:06.330Z,18.75
2016-04-02T09:39:06.348Z,18.95
2016-04-02T09:40:06.383Z,19.16
2016-04-02T09:41:06.416Z,19.47
2016-04-02T09:42:06.419Z,19.47
2016-04-02T09:43:06.437Z,19.49
2016-04-02T09:44:06.471Z,19.3
2016-04-02T09:45:06.490Z,19.27
2016-04-02T09:46:06.507Z,19.14
2016-04-02T09:47:06.557Z,19.19
2016-04-02T09:48:06.559Z,19.3
2016-04-02T09:49:06.641Z,19.31
2016-04-02T09:50:06.612Z,19.15
2016-04-02T09:51:06.631Z,19.14
2016-04-02T09:52:06.648Z,18.93
2016-04-02T09:53:06.667Z,18.95
2016-04-02T09:54:06.701Z,19.08
2016-04-02T09:55:06.719Z,19.18
2016-04-02T09:56:06.738Z,19.3
2016-04-02T09:57:06.772Z,19.29
2016-04-02T09:58:06.790Z,19.41
2016-04-02T09:59:06.825Z,19.48
2016-04-02T10:00:06.827Z,19.77
2016-04-02T10:01:06.877Z,19.91
2016-04-02T10:02:06.894Z,19.88
2016-04-02T10:03:06.928Z,19.89
2016-04-02T10:04:07.010Z,20.02
2016-04-02T10:05:06.950Z,20.04
2016-04-02T10:06:06.969Z,20.09
2016-04-02T10:07:07.002Z,20.21
2016-04-02T10:08:07.021Z,19.96
2016-04-02T10:09:07.054Z,19.95
2016-04-02T10:10:07.057Z,19.86
2016-04-02T10:11:07.106Z,20.14
2016-04-02T10:12:07.124Z,20.31
2016-04-02T10:13:07.143Z,20.36
2016-04-02T10:14:07.162Z,20.24
2016-04-02T10:15:07.180Z,20.02
2016-04-02T10:16:07.213Z,19.82
2016-04-02T10:17:07.232Z,20.06
2016-04-02T10:18:07.281Z,20.04
2016-04-02T10:19:07.300Z,19.84
2016-04-02T10:20:07.302Z,19.66
2016-04-02T10:21:07.336Z,19.73
2016-04-02T10:22:07.354Z,19.58
2016-04-02T10:23:07.389Z,19.66
2016-04-02T10:24:07.407Z,19.63
2016-04-02T10:25:07.425Z,19.69
2016-04-02T10:26:07.459Z,19.86
2016-04-02T10:27:07.524Z,20.03
2016-04-02T10:28:07.495Z,19.71
2016-04-02T10:29:07.514Z,19.37
2016-04-02T10:30:07.548Z,18.93
2016-04-02T10:31:07.583Z,18.75
2016-04-02T10:32:07.585Z,18.92
2016-04-02T10:33:07.634Z,18.8
2016-04-02T10:34:07.730Z,18.89
2016-04-02T10:35:07.671Z,19.07
2016-04-02T10:36:07.688Z,19.18
2016-04-02T10:37:07.707Z,19.08
2016-04-02T10:38:07.741Z,19.12
2016-04-02T10:39:07.744Z,18.93
2016-04-02T10:40:07.763Z,18.95
2016-04-02T10:41:07.812Z,19.15
2016-04-02T10:42:07.815Z,19.09
2016-04-02T10:43:07.865Z,19.16
2016-04-02T10:44:07.867Z,19.18
2016-04-02T10:45:07.885Z,18.98
2016-04-02T10:46:07.918Z,18.99
2016-04-02T10:47:07.953Z,19.09
2016-04-02T10:48:07.956Z,19.12
2016-04-02T10:49:07.881Z,19.02
2016-04-02T10:50:08.009Z,19.11
2016-04-02T10:51:08.026Z,18.95
2016-04-02T10:52:08.060Z,19
2016-04-02T10:53:08.062Z,18.86
2016-04-02T10:54:08.098Z,18.74
2016-04-02T10:55:08.115Z,18.77
2016-04-02T10:56:08.150Z,18.92
2016-04-02T10:57:08.184Z,18.95
2016-04-02T10:58:08.186Z,18.95
2016-04-02T10:59:08.220Z,18.92
2016-04-02T11:00:08.238Z,18.92
2016-04-02T11:01:08.241Z,18.92
2016-04-02T11:02:08.290Z,18.9
2016-04-02T11:03:08.298Z,18.99
2016-04-02T11:04:08.320Z,19
2016-04-02T11:05:08.344Z,18.96
2016-04-02T11:06:08.336Z,18.88
2016-04-02T11:07:08.342Z,18.93
2016-04-02T11:08:08.356Z,18.92
2016-04-02T11:09:08.386Z,18.95
2016-04-02T11:10:08.400Z,19.02
2016-04-02T11:11:08.398Z,18.89
2016-04-02T11:12:08.428Z,19
2016-04-02T11:13:08.445Z,18.93
2016-04-02T11:14:08.446Z,18.77
2016-04-02T11:15:08.494Z,18.65
2016-04-02T11:16:08.510Z,18.7
2016-04-02T11:17:08.511Z,18.96
2016-04-02T11:18:08.545Z,18.86
2016-04-02T11:19:08.611Z,18.7
2016-04-02T11:20:08.597Z,18.73
2016-04-02T11:21:08.599Z,18.73
2016-04-02T11:22:08.648Z,18.84
2016-04-02T11:23:08.651Z,18.95
2016-04-02T11:24:08.701Z,19.15
2016-04-02T11:25:08.688Z,19.22
2016-04-02T11:26:08.723Z,19.44
2016-04-02T11:27:08.756Z,19.52
2016-04-02T11:28:08.806Z,19.66
2016-04-02T11:29:08.808Z,19.79
2016-04-02T11:30:08.811Z,19.86
2016-04-02T11:31:08.845Z,20.09
2016-04-02T11:32:08.847Z,20.11
2016-04-02T11:33:08.897Z,20.18
2016-04-02T11:34:08.947Z,20.06
2016-04-02T11:35:08.934Z,20
2016-04-02T11:36:08.953Z,20.07
2016-04-02T11:37:08.955Z,20.28
2016-04-02T11:38:09.005Z,20.34
2016-04-02T11:39:09.022Z,20.22
2016-04-02T11:40:09.057Z,20.47
2016-04-02T11:41:09.074Z,20.52
2016-04-02T11:42:09.093Z,20.56
2016-04-02T11:43:09.111Z,20.6
2016-04-02T11:44:09.160Z,20.72
2016-04-02T11:45:09.149Z,20.78
2016-04-02T11:46:09.198Z,20.87
2016-04-02T11:47:09.201Z,20.88
2016-04-02T11:48:09.234Z,20.96
2016-04-02T11:49:09.284Z,20.97
2016-04-02T11:50:09.287Z,20.85
2016-04-02T11:51:09.305Z,20.77
2016-04-02T11:52:09.355Z,20.66
2016-04-02T11:53:09.342Z,20.34
2016-04-02T11:54:09.391Z,20.52
2016-04-02T11:55:09.393Z,20.62
2016-04-02T11:56:09.428Z,20.72
2016-04-02T11:57:09.445Z,20.78
2016-04-02T11:58:09.464Z,20.75
2016-04-02T11:59:09.529Z,20.82
2016-04-02T12:00:09.516Z,20.97
2016-04-02T12:01:09.551Z,20.92
2016-04-02T12:02:09.553Z,20.92
2016-04-02T12:03:09.587Z,20.96
2016-04-02T12:04:09.636Z,20.82
2016-04-02T12:05:09.655Z,20.96
2016-04-02T12:06:09.658Z,21
2016-04-02T12:07:09.691Z,21.05
2016-04-02T12:08:09.710Z,20.96
2016-04-02T12:09:09.727Z,20.95
2016-04-02T12:10:09.762Z,21.02
2016-04-02T12:11:09.780Z,21.35
2016-04-02T12:12:09.814Z,21.42
2016-04-02T12:13:09.833Z,21.57
2016-04-02T12:14:09.866Z,21.73
2016-04-02T12:15:09.885Z,21.76
2016-04-02T12:16:09.904Z,21.77
2016-04-02T12:17:09.921Z,21.89
2016-04-02T12:18:09.941Z,21.77
2016-04-02T12:19:10.162Z,21.66
2016-04-02T12:20:10.008Z,21.64
2016-04-02T12:21:10.010Z,21.62
2016-04-02T12:22:10.045Z,21.48
2016-04-02T12:23:10.110Z,21.42
2016-04-02T12:24:10.096Z,21.51
2016-04-02T12:25:09.959Z,21.69
2016-04-02T12:26:10.148Z,21.52
2016-04-02T12:27:10.168Z,21.54
2016-04-02T12:28:10.201Z,21.4
2016-04-02T12:29:10.204Z,21.37
2016-04-02T12:30:10.254Z,21.45
2016-04-02T12:31:10.272Z,21.4
2016-04-02T12:32:10.290Z,21.43
2016-04-02T12:33:10.324Z,21.48
2016-04-02T12:34:10.405Z,21.54
2016-04-02T12:35:10.360Z,21.42
2016-04-02T12:36:10.378Z,21.3
2016-04-02T12:37:10.413Z,21.24
2016-04-02T12:38:10.463Z,21.3
2016-04-02T12:39:10.481Z,21.35
2016-04-02T12:40:10.483Z,21.17
2016-04-02T12:41:10.502Z,20.84
2016-04-02T12:42:10.535Z,20.67
2016-04-02T12:43:10.555Z,20.77
2016-04-02T12:44:10.588Z,20.58
2016-04-02T12:45:10.607Z,20.55
2016-04-02T12:46:10.641Z,20.66
2016-04-02T12:47:10.674Z,20.63
2016-04-02T12:48:11.083Z,20.69
2016-04-02T12:49:10.711Z,20.7
2016-04-02T12:50:10.713Z,20.84
2016-04-02T12:51:10.763Z,20.97
2016-04-02T12:52:10.765Z,20.87
2016-04-02T12:53:10.816Z,20.78
2016-04-02T12:54:10.818Z,20.82
2016-04-02T12:55:10.837Z,20.72
2016-04-02T12:56:10.871Z,20.72
2016-04-02T12:57:10.889Z,20.8
2016-04-02T12:58:10.907Z,20.8
2016-04-02T12:59:10.940Z,20.74
2016-04-02T13:00:10.959Z,20.75
2016-04-02T13:01:10.977Z,20.72
2016-04-02T13:02:11.042Z,20.75